createdAt,value
2018-09-12T00:01:44.762Z,4.93
2018-09-12T00:04:13.451Z,6.10
2018-09-12T00:06:42.211Z,5.70
2018-09-12T00:09:12.187Z,5.20
2018-09-12T00:11:41.209Z,5.17
2018-09-12T00:14:10.180Z,4.80
2018-09-12T00:16:38.840Z,4.90
2018-09-12T00:19:08.049Z,4.13
2018-09-12T00:21:37.010Z,4.60
2018-09-12T00:24:05.641Z,3.90
2018-09-12T00:26:34.241Z,4.27
2018-09-12T00:29:02.898Z,4.50
2018-09-12T00:31:31.586Z,4.27
2018-09-12T00:34:00.251Z,4.07
2018-09-12T00:36:28.932Z,4.08
2018-09-12T00:38:57.622Z,3.60
2018-09-12T00:41:26.332Z,4.05
2018-09-12T00:43:55.027Z,3.90
2018-09-12T00:46:23.675Z,3.93
2018-09-12T00:48:52.386Z,3.93
2018-09-12T00:51:21.031Z,4.13
2018-09-12T00:53:49.731Z,4.72
2018-09-12T00:56:18.611Z,4.28
2018-09-12T00:58:47.263Z,4.23
2018-09-12T01:01:15.900Z,4.43
2018-09-12T01:03:44.640Z,4.70
2018-09-12T01:06:13.344Z,4.47
2018-09-12T01:08:42.605Z,4.57
2018-09-12T01:11:11.315Z,4.40
2018-09-12T01:13:39.991Z,4.30
2018-09-12T01:16:08.636Z,4.00
2018-09-12T01:18:37.280Z,4.33
2018-09-12T01:21:05.979Z,4.40
2018-09-12T01:23:34.615Z,4.30
2018-09-12T01:26:03.327Z,5.10
2018-09-12T01:28:31.979Z,4.67
2018-09-12T01:31:00.624Z,4.67
2018-09-12T01:33:29.310Z,4.80
2018-09-12T01:35:58.015Z,4.60
2018-09-12T01:38:26.666Z,5.10
2018-09-12T01:40:55.406Z,4.70
2018-09-12T01:43:24.051Z,4.72
2018-09-12T01:45:52.751Z,5.10
2018-09-12T01:48:21.427Z,4.80
2018-09-12T01:50:50.041Z,4.77
2018-09-12T01:53:18.670Z,4.63
2018-09-12T01:55:47.342Z,4.60
2018-09-12T01:58:16.025Z,4.63
2018-09-12T02:00:44.731Z,5.23
2018-09-12T02:03:13.446Z,4.60
2018-09-12T02:05:42.931Z,5.22
2018-09-12T02:08:11.552Z,5.40
2018-09-12T02:10:40.191Z,4.93
2018-09-12T02:13:08.819Z,5.57
2018-09-12T02:15:37.511Z,5.53
2018-09-12T02:18:06.197Z,4.97
2018-09-12T02:20:34.862Z,4.87
2018-09-12T02:23:03.484Z,4.57
2018-09-12T02:25:32.168Z,5.07
2018-09-12T02:28:01.051Z,4.77
2018-09-12T02:30:29.701Z,5.50
2018-09-12T02:32:58.359Z,5.23
2018-09-12T02:35:27.034Z,4.93
2018-09-12T02:37:55.676Z,5.03
2018-09-12T02:40:24.407Z,5.62
2018-09-12T02:42:53.031Z,5.40
2018-09-12T02:45:21.761Z,5.95
2018-09-12T02:47:50.411Z,5.90
2018-09-12T02:50:19.076Z,5.70
2018-09-12T02:52:47.700Z,5.40
2018-09-12T02:55:16.335Z,5.17
2018-09-12T02:57:45.007Z,5.83
2018-09-12T03:00:13.666Z,5.60
2018-09-12T03:02:43.002Z,4.97
2018-09-12T03:05:11.666Z,6.03
2018-09-12T03:07:40.344Z,5.23
2018-09-12T03:10:09.005Z,5.70
2018-09-12T03:12:37.635Z,5.73
2018-09-12T03:15:06.310Z,5.27
2018-09-12T03:17:35.069Z,5.50
2018-09-12T03:20:03.815Z,6.30
2018-09-12T03:22:32.482Z,6.17
2018-09-12T03:25:01.145Z,6.10
2018-09-12T03:27:30.426Z,6.67
2018-09-12T03:29:59.121Z,6.33
2018-09-12T03:32:27.752Z,5.87
2018-09-12T03:34:56.420Z,6.00
2018-09-12T03:37:25.142Z,5.90
2018-09-12T03:39:53.767Z,6.23
2018-09-12T03:42:22.483Z,6.53
2018-09-12T03:44:51.185Z,6.70
2018-09-12T03:47:19.836Z,6.25
2018-09-12T03:49:48.480Z,6.43
2018-09-12T03:52:17.136Z,6.67
2018-09-12T03:54:45.840Z,6.67
2018-09-12T03:57:14.529Z,6.10
2018-09-12T03:59:43.138Z,6.27
2018-09-12T04:02:11.817Z,6.73
2018-09-12T04:04:40.440Z,6.57
2018-09-12T04:07:09.112Z,6.67
2018-09-12T04:09:37.776Z,6.47
2018-09-12T04:12:06.475Z,5.70
2018-09-12T04:14:35.096Z,6.13
2018-09-12T04:17:03.803Z,6.40
2018-09-12T04:19:32.427Z,6.80
2018-09-12T04:22:01.090Z,6.93
2018-09-12T04:24:29.732Z,6.27
2018-09-12T04:26:58.425Z,6.78
2018-09-12T04:29:27.096Z,6.50
2018-09-12T04:31:55.812Z,7.22
2018-09-12T04:34:24.446Z,7.25
2018-09-12T04:36:53.459Z,7.50
2018-09-12T04:39:22.172Z,6.70
2018-09-12T04:41:50.890Z,7.00
2018-09-12T04:44:19.538Z,6.57
2018-09-12T04:46:48.271Z,7.27
2018-09-12T04:49:16.991Z,7.43
2018-09-12T04:51:45.655Z,6.97
2018-09-12T04:54:14.415Z,8.13
2018-09-12T04:56:43.421Z,7.05
2018-09-12T04:59:12.047Z,6.43
2018-09-12T05:01:40.681Z,7.07
2018-09-12T05:04:09.336Z,6.13
2018-09-12T05:06:37.981Z,6.87
2018-09-12T05:09:08.697Z,6.00
2018-09-12T05:11:37.452Z,7.13
2018-09-12T05:14:06.220Z,6.70
2018-09-12T05:16:34.940Z,6.80
2018-09-12T05:19:03.696Z,6.80
2018-09-12T05:21:32.346Z,6.63
2018-09-12T05:24:01.081Z,6.03
2018-09-12T05:26:29.737Z,6.73
2018-09-12T05:28:58.386Z,7.37
2018-09-12T05:31:27.116Z,8.07
2018-09-12T05:33:55.799Z,7.53
2018-09-12T05:36:24.509Z,8.17
2018-09-12T05:38:53.220Z,7.87
2018-09-12T05:41:21.864Z,7.95
2018-09-12T05:43:50.550Z,7.87
2018-09-12T05:46:19.256Z,7.78
2018-09-12T05:48:47.865Z,8.10
2018-09-12T05:51:16.656Z,7.93
2018-09-12T05:53:45.481Z,8.37
2018-09-12T05:56:14.365Z,8.33
2018-09-12T05:58:44.183Z,8.77
2018-09-12T06:01:13.845Z,8.63
2018-09-12T06:03:44.068Z,10.60
2018-09-12T06:06:13.813Z,9.80
2018-09-12T06:08:42.676Z,9.77
2018-09-12T06:11:11.541Z,9.13
2018-09-12T06:13:40.945Z,9.07
2018-09-12T06:16:09.741Z,9.73
2018-09-12T06:18:38.471Z,9.77
2018-09-12T06:21:07.331Z,8.30
2018-09-12T06:23:36.261Z,9.57
2018-09-12T06:26:05.649Z,9.07
2018-09-12T06:28:34.404Z,8.80
2018-09-12T06:31:03.286Z,9.13
2018-09-12T06:33:32.205Z,9.47
2018-09-12T06:36:01.157Z,8.27
2018-09-12T06:38:30.131Z,9.13
2018-09-12T06:40:59.166Z,9.65
2018-09-12T06:43:28.810Z,8.53
2018-09-12T06:45:57.657Z,9.43
2018-09-12T06:48:27.904Z,9.10
2018-09-12T06:50:57.244Z,9.17
2018-09-12T06:53:26.771Z,8.80
2018-09-12T06:55:55.669Z,9.85
2018-09-12T06:58:24.669Z,10.15
2018-09-12T07:00:54.213Z,9.73
2018-09-12T07:03:23.050Z,9.10
2018-09-12T07:05:51.839Z,9.70
2018-09-12T07:08:20.579Z,9.38
2018-09-12T07:10:49.480Z,9.90
2018-09-12T07:13:19.389Z,8.53
2018-09-12T07:15:48.331Z,8.73
2018-09-12T07:18:17.121Z,9.87
2018-09-12T07:20:45.999Z,9.23
2018-09-12T07:23:14.840Z,9.70
2018-09-12T07:25:43.552Z,8.97
2018-09-12T07:28:12.175Z,9.15
2018-09-12T07:30:41.471Z,9.55
2018-09-12T07:33:10.420Z,9.63
2018-09-12T07:35:39.191Z,9.20
2018-09-12T07:38:07.951Z,9.03
2018-09-12T07:40:36.814Z,11.88
2018-09-12T07:43:05.765Z,12.97
2018-09-12T07:45:34.615Z,14.60
2018-09-12T07:48:03.396Z,14.37
2018-09-12T07:50:32.142Z,15.67
2018-09-12T07:53:01.991Z,15.10
2018-09-12T07:55:30.732Z,14.57
2018-09-12T07:57:59.530Z,13.80
2018-09-12T08:00:28.529Z,14.37
2018-09-12T08:02:57.127Z,14.53
2018-09-12T08:05:26.103Z,14.67
2018-09-12T08:07:54.912Z,14.00
2018-09-12T08:13:20.682Z,12.47
2018-09-12T08:15:49.352Z,13.30
2018-09-12T08:18:18.169Z,11.80
2018-09-12T08:20:47.020Z,13.23
2018-09-12T08:23:15.940Z,13.57
2018-09-12T08:25:44.586Z,13.33
2018-09-12T08:28:13.662Z,12.87
2018-09-12T08:30:42.432Z,14.00
2018-09-12T08:33:11.254Z,13.32
2018-09-12T08:35:39.967Z,13.60
2018-09-12T08:38:09.290Z,12.28
2018-09-12T08:40:38.153Z,12.67
2018-09-12T08:43:07.602Z,12.10
2018-09-12T08:45:37.840Z,12.93
2018-09-12T08:48:06.757Z,13.53
2018-09-12T08:50:35.542Z,13.43
2018-09-12T08:53:04.296Z,13.13
2018-09-12T08:55:33.707Z,13.48
2018-09-12T08:58:02.380Z,13.27
2018-09-12T09:00:35.906Z,12.73
2018-09-12T09:03:06.336Z,12.70
2018-09-12T09:05:34.994Z,13.73
2018-09-12T09:08:03.842Z,15.17
2018-09-12T09:10:32.666Z,13.67
2018-09-12T09:13:01.426Z,14.70
2018-09-12T09:15:30.370Z,13.80
2018-09-12T09:17:59.091Z,14.40
2018-09-12T09:20:28.090Z,13.03
2018-09-12T09:22:56.952Z,13.98
2018-09-12T09:25:25.706Z,13.20
2018-09-12T09:27:54.416Z,12.77
2018-09-12T09:30:26.031Z,12.03
2018-09-12T09:32:54.702Z,12.80
2018-09-12T09:35:23.374Z,12.60
2018-09-12T09:37:51.956Z,12.33
2018-09-12T09:40:20.687Z,12.93
2018-09-12T09:42:49.494Z,12.37
2018-09-12T09:45:18.300Z,11.67
2018-09-12T09:47:47.626Z,11.03
2018-09-12T09:50:16.326Z,10.93
2018-09-12T09:52:45.105Z,10.30
2018-09-12T09:55:13.809Z,9.77
2018-09-12T09:57:43.130Z,11.93
2018-09-12T10:00:17.396Z,10.27
2018-09-12T10:02:51.296Z,12.33
2018-09-12T10:05:25.750Z,11.83
2018-09-12T10:07:59.899Z,13.33
2018-09-12T10:10:28.654Z,12.27
2018-09-12T10:12:57.688Z,12.13
2018-09-12T10:15:26.255Z,12.10
2018-09-12T10:17:55.149Z,11.53
2018-09-12T10:20:24.767Z,9.77
2018-09-12T10:22:53.506Z,9.60
2018-09-12T10:25:22.131Z,10.53
2018-09-12T10:27:50.914Z,10.57
2018-09-12T10:30:19.662Z,9.93
2018-09-12T10:32:48.249Z,9.73
2018-09-12T10:35:16.836Z,11.17
2018-09-12T10:37:45.449Z,11.40
2018-09-12T10:40:14.030Z,11.97
2018-09-12T10:42:43.262Z,11.53
2018-09-12T10:45:12.125Z,11.15
2018-09-12T10:47:40.930Z,11.50
2018-09-12T10:50:09.712Z,12.50
2018-09-12T10:52:38.555Z,13.97
2018-09-12T10:55:08.024Z,12.85
2018-09-12T10:57:36.787Z,13.10
2018-09-12T11:00:06.842Z,14.07
2018-09-12T11:02:36.125Z,14.87
2018-09-12T11:05:05.003Z,14.00
2018-09-12T11:07:33.721Z,15.13
2018-09-12T11:10:02.839Z,13.13
2018-09-12T11:12:31.696Z,12.87
2018-09-12T11:15:01.385Z,13.50
2018-09-12T11:17:30.853Z,14.13
2018-09-12T11:20:00.194Z,13.43
2018-09-12T11:22:29.228Z,12.93
2018-09-12T11:24:58.615Z,12.33
2018-09-12T11:27:27.650Z,12.63
2018-09-12T11:29:57.339Z,11.80
2018-09-12T11:32:26.131Z,12.03
2018-09-12T11:34:54.990Z,12.43
2018-09-12T11:37:24.004Z,12.13
2018-09-12T11:39:52.769Z,13.17
2018-09-12T11:42:21.684Z,13.60
2018-09-12T11:44:50.586Z,11.47
2018-09-12T11:47:20.112Z,10.10
2018-09-12T11:49:48.929Z,10.47
2018-09-12T11:52:18.407Z,8.80
2018-09-12T11:54:47.281Z,7.70
2018-09-12T11:57:16.245Z,8.47
2018-09-12T11:59:45.154Z,6.95
2018-09-12T12:02:14.077Z,6.37
2018-09-12T12:04:42.904Z,7.57
2018-09-12T12:07:11.854Z,7.78
2018-09-12T12:09:40.760Z,6.97
2018-09-12T12:12:10.081Z,6.90
2018-09-12T12:14:38.864Z,7.03
2018-09-12T12:17:07.659Z,8.65
2018-09-12T12:19:36.439Z,5.57
2018-09-12T12:22:05.188Z,5.23
2018-09-12T12:24:34.176Z,4.45
2018-09-12T12:27:03.059Z,4.10
2018-09-12T12:29:31.943Z,4.43
2018-09-12T12:32:01.249Z,4.10
2018-09-12T12:34:30.021Z,4.20
2018-09-12T12:36:59.321Z,4.30
2018-09-12T12:39:28.190Z,5.70
2018-09-12T12:41:57.024Z,4.93
2018-09-12T12:44:26.078Z,4.27
2018-09-12T12:46:55.061Z,3.93
2018-09-12T12:49:24.055Z,6.63
2018-09-12T12:51:53.234Z,5.63
2018-09-12T12:54:22.014Z,5.30
2018-09-12T12:56:51.106Z,4.50
2018-09-12T12:59:19.974Z,4.23
2018-09-12T13:01:48.773Z,4.67
2018-09-12T13:04:17.705Z,4.55
2018-09-12T13:06:46.517Z,4.03
2018-09-12T13:09:15.451Z,5.30
2018-09-12T13:11:44.680Z,4.30
2018-09-12T13:14:14.303Z,4.10
2018-09-12T13:16:43.119Z,4.05
2018-09-12T13:19:12.034Z,4.10
2018-09-12T13:21:41.065Z,3.97
2018-09-12T13:24:09.825Z,3.83
2018-09-12T13:26:38.782Z,4.97
2018-09-12T13:29:07.648Z,4.37
2018-09-12T13:31:36.431Z,4.60
2018-09-12T13:34:05.295Z,4.50
2018-09-12T13:36:35.064Z,5.50
2018-09-12T13:39:06.738Z,4.53
2018-09-12T13:41:36.985Z,4.40
2018-09-12T13:44:05.808Z,5.20
2018-09-12T13:46:34.734Z,4.67
2018-09-12T13:49:03.968Z,5.20
2018-09-12T13:51:32.751Z,4.33
2018-09-12T13:54:01.515Z,4.37
2018-09-12T13:56:30.689Z,3.80
2018-09-12T13:59:00.440Z,3.30
2018-09-12T14:01:29.303Z,3.60
2018-09-12T14:03:58.033Z,3.57
2018-09-12T14:06:26.770Z,2.90
2018-09-12T14:08:55.762Z,2.73
2018-09-12T14:11:25.049Z,2.77
2018-09-12T14:13:54.009Z,2.60
2018-09-12T14:16:22.894Z,2.50
2018-09-12T14:18:52.303Z,2.27
2018-09-12T14:21:21.126Z,1.97
2018-09-12T14:23:49.917Z,1.80
2018-09-12T14:26:19.413Z,2.65
2018-09-12T14:28:48.461Z,2.50
2018-09-12T14:31:17.453Z,2.17
2018-09-12T14:33:46.416Z,1.80
2018-09-12T14:36:15.333Z,2.15
2018-09-12T14:38:44.209Z,2.43
2018-09-12T14:41:13.173Z,3.17
2018-09-12T14:43:42.924Z,3.00
2018-09-12T14:46:11.928Z,3.10
2018-09-12T14:48:40.855Z,2.40
2018-09-12T14:51:10.097Z,2.00
2018-09-12T14:53:39.093Z,2.37
2018-09-12T14:56:08.209Z,2.00
2018-09-12T14:58:37.524Z,2.05
2018-09-12T15:01:06.873Z,2.00
2018-09-12T15:03:35.738Z,2.20
2018-09-12T15:06:04.529Z,2.20
2018-09-12T15:08:33.206Z,2.20
2018-09-12T15:11:01.965Z,2.87
2018-09-12T15:13:31.232Z,3.02
2018-09-12T15:16:00.107Z,3.33
2018-09-12T15:18:28.999Z,3.10
2018-09-12T15:20:57.917Z,4.33
2018-09-12T15:23:27.373Z,4.53
2018-09-12T15:25:56.241Z,4.40
2018-09-12T15:28:25.237Z,3.53
2018-09-12T15:30:54.144Z,4.07
2018-09-12T15:33:22.917Z,4.03
2018-09-12T15:35:51.822Z,4.13
2018-09-12T15:38:20.779Z,4.90
2018-09-12T15:40:49.808Z,4.70
2018-09-12T15:43:19.488Z,5.80
2018-09-12T15:45:48.409Z,5.00
2018-09-12T15:48:17.964Z,5.30
2018-09-12T15:50:46.703Z,5.30
2018-09-12T15:53:15.634Z,6.80
2018-09-12T15:55:45.446Z,5.90
2018-09-12T15:58:14.438Z,7.90
2018-09-12T16:00:43.189Z,7.07
2018-09-12T16:03:12.227Z,5.40
2018-09-12T16:05:41.052Z,5.50
2018-09-12T16:08:09.761Z,6.40
2018-09-12T16:10:38.788Z,6.23
2018-09-12T16:13:07.532Z,5.67
2018-09-12T16:15:36.668Z,6.30
2018-09-12T16:18:05.853Z,6.27
2018-09-12T16:20:35.471Z,6.93
2018-09-12T16:23:04.361Z,6.10
2018-09-12T16:25:39.368Z,6.13
2018-09-12T16:28:08.347Z,5.75
2018-09-12T16:30:37.137Z,5.80
2018-09-12T16:33:05.992Z,4.73
2018-09-12T16:35:34.834Z,4.20
2018-09-12T16:38:03.689Z,5.73
2018-09-12T16:40:32.427Z,4.87
2018-09-12T16:43:01.308Z,4.07
2018-09-12T16:45:30.177Z,5.03
2018-09-12T16:47:59.249Z,4.23
2018-09-12T16:50:28.152Z,3.83
2018-09-12T16:52:57.922Z,3.43
2018-09-12T16:55:26.692Z,4.80
2018-09-12T16:57:56.237Z,3.90
2018-09-12T17:00:25.183Z,4.37
2018-09-12T17:02:54.028Z,4.60
2018-09-12T17:05:22.738Z,4.30
2018-09-12T17:07:51.648Z,3.77
2018-09-12T17:10:20.565Z,4.67
2018-09-12T17:12:49.594Z,3.53
2018-09-12T17:15:18.410Z,4.25
2018-09-12T17:17:47.189Z,3.45
2018-09-12T17:20:16.088Z,4.92
2018-09-12T17:22:45.408Z,5.70
2018-09-12T17:25:14.087Z,5.43
2018-09-12T17:27:42.974Z,5.27
2018-09-12T17:30:12.393Z,5.03
2018-09-12T17:32:41.964Z,5.20
2018-09-12T17:35:10.802Z,5.77
2018-09-12T17:37:39.652Z,6.37
2018-09-12T17:40:09.182Z,6.37
2018-09-12T17:42:38.090Z,5.87
2018-09-12T17:45:07.915Z,5.73
2018-09-12T17:47:37.137Z,5.27
2018-09-12T17:50:06.303Z,5.33
2018-09-12T17:52:35.339Z,5.07
2018-09-12T17:55:04.275Z,4.87
2018-09-12T17:57:33.274Z,5.17
2018-09-12T18:00:02.454Z,4.60
2018-09-12T18:02:31.308Z,5.17
2018-09-12T18:05:00.174Z,5.33
2018-09-12T18:07:29.164Z,5.10
2018-09-12T18:09:58.249Z,4.70
2018-09-12T18:12:27.314Z,4.77
2018-09-12T18:14:56.298Z,3.80
2018-09-12T18:17:25.830Z,4.30
2018-09-12T18:19:54.764Z,5.60
2018-09-12T18:22:23.622Z,4.30
2018-09-12T18:24:52.470Z,4.90
2018-09-12T18:27:21.018Z,5.23
2018-09-12T18:29:49.718Z,4.13
2018-09-12T18:32:18.430Z,5.00
2018-09-12T18:34:47.180Z,5.10
2018-09-12T18:37:15.843Z,4.63
2018-09-12T18:39:44.512Z,4.58
2018-09-12T18:42:13.248Z,4.80
2018-09-12T18:44:41.940Z,5.30
2018-09-12T18:47:10.687Z,5.22
2018-09-12T18:49:39.393Z,5.40
2018-09-12T18:52:08.088Z,4.20
2018-09-12T18:54:36.738Z,4.63
2018-09-12T18:57:05.860Z,4.57
2018-09-12T18:59:34.770Z,4.77
2018-09-12T19:02:03.868Z,4.65
2018-09-12T19:04:32.614Z,4.53
2018-09-12T19:07:01.508Z,4.90
2018-09-12T19:09:30.240Z,4.80
2018-09-12T19:11:59.089Z,5.70
2018-09-12T19:14:27.796Z,5.83
2018-09-12T19:16:56.717Z,4.70
2018-09-12T19:19:25.619Z,5.50
2018-09-12T19:21:54.359Z,5.10
2018-09-12T19:24:23.068Z,5.73
2018-09-12T19:26:52.314Z,5.07
2018-09-12T19:29:22.453Z,4.67
2018-09-12T19:31:51.594Z,5.90
2018-09-12T19:34:20.318Z,5.47
2018-09-12T19:36:49.088Z,5.30
2018-09-12T19:39:17.852Z,4.33
2018-09-12T19:41:48.003Z,5.40
2018-09-12T19:44:16.734Z,5.07
2018-09-12T19:46:45.628Z,5.92
2018-09-12T19:49:14.569Z,5.83
2018-09-12T19:51:43.368Z,5.93
2018-09-12T19:54:12.361Z,6.00
2018-09-12T19:56:41.713Z,5.60
2018-09-12T19:59:10.406Z,5.63
2018-09-12T20:01:39.308Z,5.57
2018-09-12T20:04:08.319Z,5.28
2018-09-12T20:06:37.158Z,6.00
2018-09-12T20:09:09.033Z,5.67
2018-09-12T20:11:37.695Z,5.80
2018-09-12T20:14:06.585Z,5.00
2018-09-12T20:16:35.492Z,6.25
2018-09-12T20:19:04.288Z,6.70
2018-09-12T20:21:33.198Z,6.30
2018-09-12T20:24:02.483Z,5.40
2018-09-12T20:26:31.352Z,5.97
2018-09-12T20:29:00.389Z,6.40
2018-09-12T20:31:29.234Z,6.42
2018-09-12T20:33:58.128Z,6.80
2018-09-12T20:36:26.984Z,6.03
2018-09-12T20:38:56.057Z,6.12
2018-09-12T20:41:24.901Z,6.60
2018-09-12T20:43:53.869Z,7.10
2018-09-12T20:46:23.763Z,7.63
2018-09-12T20:48:52.661Z,7.27
2018-09-12T20:51:22.739Z,6.47
2018-09-12T20:53:51.726Z,7.40
2018-09-12T20:56:20.703Z,6.63
2018-09-12T20:58:49.618Z,8.33
2018-09-12T21:01:18.452Z,7.10
2018-09-12T21:03:47.304Z,7.13
2018-09-12T21:06:16.106Z,6.50
2018-09-12T21:08:44.895Z,6.07
2018-09-12T21:11:13.657Z,7.53
2018-09-12T21:13:42.484Z,7.10
2018-09-12T21:16:11.324Z,6.90
2018-09-12T21:18:40.188Z,7.70
2018-09-12T21:21:09.703Z,7.72
2018-09-12T21:23:38.732Z,8.50
2018-09-12T21:26:07.589Z,7.75
2018-09-12T21:28:36.548Z,7.30
2018-09-12T21:31:05.373Z,8.37
2018-09-12T21:33:34.231Z,7.08
2018-09-12T21:36:03.097Z,8.48
2018-09-12T21:38:32.013Z,7.60
2018-09-12T21:41:01.072Z,7.73
2018-09-12T21:43:29.866Z,8.07
2018-09-12T21:45:59.269Z,6.93
2018-09-12T21:48:28.619Z,6.73
2018-09-12T21:50:58.857Z,6.07
2018-09-12T21:53:27.997Z,5.93
2018-09-12T21:55:56.822Z,5.50
2018-09-12T21:58:25.765Z,5.37
2018-09-12T22:00:55.011Z,5.00
2018-09-12T22:03:23.692Z,4.80
2018-09-12T22:05:52.506Z,4.90
2018-09-12T22:08:21.287Z,5.62
2018-09-12T22:10:50.192Z,4.17
2018-09-12T22:13:18.913Z,4.70
2018-09-12T22:15:47.993Z,4.93
2018-09-12T22:18:16.977Z,5.00
2018-09-12T22:20:45.807Z,5.37
2018-09-12T22:23:14.745Z,5.15
2018-09-12T22:25:43.464Z,5.58
2018-09-12T22:28:13.018Z,5.57
2018-09-12T22:30:41.926Z,5.67
2018-09-12T22:33:10.848Z,5.90
2018-09-12T22:35:39.703Z,5.63
2018-09-12T22:38:08.493Z,5.83
2018-09-12T22:40:38.047Z,5.87
2018-09-12T22:43:07.128Z,6.07
2018-09-12T22:45:36.876Z,5.92
2018-09-12T22:48:05.713Z,5.92
2018-09-12T22:50:34.792Z,5.17
2018-09-12T22:53:03.600Z,5.03
2018-09-12T22:55:32.545Z,5.40
2018-09-12T22:58:01.265Z,6.00
2018-09-12T23:00:30.348Z,5.50
2018-09-12T23:02:59.214Z,5.47
2018-09-12T23:05:28.078Z,5.45
2018-09-12T23:07:57.138Z,5.00
2018-09-12T23:10:25.946Z,5.30
2018-09-12T23:12:55.402Z,5.20
2018-09-12T23:15:24.276Z,5.30
2018-09-12T23:17:53.029Z,5.22
2018-09-12T23:20:21.926Z,5.27
2018-09-12T23:22:50.901Z,4.30
2018-09-12T23:25:19.882Z,4.20
2018-09-12T23:27:48.786Z,4.73
2018-09-12T23:30:17.576Z,6.30
2018-09-12T23:32:47.298Z,5.30
2018-09-12T23:35:16.106Z,5.10
2018-09-12T23:37:45.041Z,5.20
2018-09-12T23:40:13.856Z,4.90
2018-09-12T23:42:42.816Z,4.97
2018-09-12T23:45:12.770Z,8.25
2018-09-12T23:47:42.033Z,20.02
2018-09-12T23:50:11.042Z,5.27
2018-09-12T23:52:40.401Z,5.80
2018-09-12T23:55:09.296Z,6.30
2018-09-12T23:57:37.967Z,5.07
